Terminal Aerodrome Forecast
Issued by NWS

Home | Current Version | Previous Version | Text Only | Print | Product List | Glossary On
Versions: 1 2 3 4 5 6 7 8 9 10 11 12 13 14 15 16 17 18
000
FTUS46 KSTO 262300
TAFSAC
TAF
KSAC 262331Z 2700/2724 VRB04KT P6SM BKN250
     FM271000 00000KT 4SM BR BCFG SCT002
      TEMPO 2714/2718 1/2SM FG OVC001=

USA.gov is the U.S. government's official web portal to all federal, state and local government web resources and services.